Time;durP1;ratioP1;P1;durP2;ratioP2;P2;SDS_P1;SDS_P2;PMS_P1;PMS_P2;Temp;Humidity;BMP_temperature;BMP_pressure;BME280_temperature;BME280_humidity;BME280_pressure;Samples;Min_cycle;Max_cycle;Signal;HPM_P1;HPM_P2
2022/05/08 00:01:14;;;;;;;6.28;4.55;;;19.80;96.80;;;;;;4593655;19;20010;-28
2022/05/08 00:02:45;;;;;;;6.45;4.35;;;19.80;96.80;;;;;;4593924;19;20011;-25
2022/05/08 00:04:16;;;;;;;6.60;4.25;;;19.80;96.80;;;;;;4594345;19;20090;-26
2022/05/08 00:05:47;;;;;;;7.10;4.90;;;19.80;96.80;;;;;;4593832;19;20014;-26
2022/05/08 00:07:21;;;;;;;8.50;5.80;;;19.80;96.80;;;;;;4593546;19;20070;-23
2022/05/08 00:08:52;;;;;;;7.28;5.30;;;19.80;96.80;;;;;;4592490;19;20102;-27
2022/05/08 00:10:23;;;;;;;6.85;5.45;;;19.80;96.90;;;;;;4594159;19;20014;-25
2022/05/08 00:11:54;;;;;;;7.80;5.28;;;19.80;96.90;;;;;;4593483;19;20010;-25
2022/05/08 00:13:25;;;;;;;7.60;5.13;;;19.80;96.90;;;;;;4593729;19;20488;-26
2022/05/08 00:14:56;;;;;;;7.72;5.22;;;19.80;96.90;;;;;;4591017;19;20002;-25
2022/05/08 00:16:27;;;;;;;7.13;5.07;;;19.80;96.90;;;;;;4591980;19;20427;-28
2022/05/08 00:17:58;;;;;;;7.38;4.57;;;19.80;96.90;;;;;;4592419;19;20014;-24
2022/05/08 00:19:29;;;;;;;6.25;4.75;;;19.80;96.90;;;;;;4592242;19;20011;-27
2022/05/08 00:21:00;;;;;;;6.55;5.00;;;19.80;97.00;;;;;;4593310;19;20357;-28
2022/05/08 00:22:31;;;;;;;7.15;5.25;;;19.80;96.90;;;;;;4592299;19;20086;-27
2022/05/08 00:24:02;;;;;;;6.53;4.85;;;19.80;97.00;;;;;;4592544;19;20468;-26
2022/05/08 00:25:33;;;;;;;6.78;4.60;;;19.80;97.00;;;;;;4593871;19;20342;-29
2022/05/08 00:27:04;;;;;;;6.32;4.80;;;19.80;97.00;;;;;;4594160;19;20007;-24
2022/05/08 00:28:36;;;;;;;6.93;5.15;;;19.80;97.00;;;;;;4592040;19;20082;-29
2022/05/08 00:30:08;;;;;;;6.00;4.85;;;19.80;97.00;;;;;;4591228;19;20033;-23
2022/05/08 00:31:39;;;;;;;;;;;19.80;97.00;;;;;;4594496;19;20099;-24
2022/05/08 00:33:10;;;;;;;6.30;4.82;;;19.80;97.10;;;;;;4593322;19;20405;-24
2022/05/08 00:34:41;;;;;;;6.80;4.80;;;19.70;97.10;;;;;;4592992;19;20074;-26
2022/05/08 00:36:12;;;;;;;5.35;4.20;;;19.70;97.10;;;;;;4593282;19;20011;-24
2022/05/08 00:37:43;;;;;;;5.50;3.88;;;19.70;97.10;;;;;;4593317;19;20013;-24
2022/05/08 00:39:16;;;;;;;4.95;4.07;;;19.70;97.10;;;;;;4591924;19;20495;-26
2022/05/08 00:40:47;;;;;;;5.68;4.43;;;19.70;97.10;;;;;;4592337;19;20017;-25
2022/05/08 00:42:18;;;;;;;4.85;3.83;;;19.70;97.20;;;;;;4593069;19;20340;-25
2022/05/08 00:43:49;;;;;;;5.95;3.53;;;19.70;97.20;;;;;;4593459;19;20025;-24
2022/05/08 00:45:20;;;;;;;4.60;3.33;;;19.70;97.20;;;;;;4592526;19;20018;-27
2022/05/08 00:46:51;;;;;;;4.25;3.17;;;19.70;97.20;;;;;;4592780;19;20011;-26
2022/05/08 00:48:22;;;;;;;4.93;3.45;;;19.70;97.20;;;;;;4592095;19;20010;-25
2022/05/08 00:49:53;;;;;;;5.05;3.20;;;19.70;97.20;;;;;;4593170;19;20002;-25
2022/05/08 00:51:24;;;;;;;4.22;3.17;;;19.70;97.20;;;;;;4592644;19;20359;-26
2022/05/08 00:52:56;;;;;;;4.80;3.65;;;19.70;97.30;;;;;;4591851;19;20086;-25
2022/05/08 00:54:27;;;;;;;4.22;2.80;;;19.70;97.30;;;;;;4592652;19;20015;-23
2022/05/08 00:55:58;;;;;;;4.93;3.35;;;19.70;97.30;;;;;;4591782;19;20019;-29
2022/05/08 00:57:29;;;;;;;4.60;3.70;;;19.70;97.30;;;;;;4591322;19;20015;-24
2022/05/08 00:59:00;;;;;;;4.95;3.05;;;19.70;97.30;;;;;;4592097;19;20429;-25
2022/05/08 01:00:31;;;;;;;4.82;2.70;;;19.70;97.40;;;;;;4591976;19;20011;-28
2022/05/08 01:02:03;;;;;;;5.00;3.50;;;19.70;97.40;;;;;;4592255;19;20033;-26
2022/05/08 01:03:34;;;;;;;4.50;3.38;;;19.70;97.40;;;;;;4592661;19;20062;-26
2022/05/08 01:05:06;;;;;;;4.95;3.47;;;19.70;97.40;;;;;;4592987;19;20074;-27
2022/05/08 01:06:37;;;;;;;4.63;3.47;;;19.60;97.40;;;;;;4593006;19;20066;-26
2022/05/08 01:08:09;;;;;;;5.18;3.83;;;19.60;97.40;;;;;;4590526;19;20605;-26
2022/05/08 01:09:40;;;;;;;4.93;3.58;;;19.70;97.50;;;;;;4591788;19;20015;-27
2022/05/08 01:11:12;;;;;;;6.30;3.75;;;19.60;97.50;;;;;;4592408;19;20070;-29
2022/05/08 01:13:01;;;;;;;5.30;3.53;;;19.60;97.50;;;;;;4592602;19;20018;-26
2022/05/08 01:14:32;;;;;;;5.55;3.38;;;19.60;97.50;;;;;;4592248;19;20062;-26
2022/05/08 01:16:09;;;;;;;4.85;3.40;;;19.60;97.50;;;;;;4592456;19;20018;-27
2022/05/08 01:17:41;;;;;;;4.32;3.30;;;19.60;97.60;;;;;;4590663;19;20019;-26
2022/05/08 01:19:12;;;;;;;4.80;3.22;;;19.60;97.60;;;;;;4592776;19;20010;-26
2022/05/08 01:20:45;;;;;;;4.57;3.30;;;19.60;97.60;;;;;;4592142;19;20014;-26
2022/05/08 01:22:16;;;;;;;4.32;3.03;;;19.60;97.60;;;;;;4592068;19;20422;-26
2022/05/08 01:23:48;;;;;;;3.83;3.05;;;19.60;97.60;;;;;;4592215;19;20022;-26
2022/05/08 01:25:19;;;;;;;3.97;3.08;;;19.60;97.60;;;;;;4592451;19;20005;-27
2022/05/08 01:26:50;;;;;;;5.00;3.55;;;19.60;97.60;;;;;;4591792;19;20431;-24
2022/05/08 01:28:22;;;;;;;4.25;3.35;;;19.60;97.60;;;;;;4589878;19;20011;-24
2022/05/08 01:29:53;;;;;;;4.35;3.30;;;19.60;97.60;;;;;;4588395;19;20014;-25
2022/05/08 01:31:24;;;;;;;4.05;3.00;;;19.60;97.60;;;;;;4592127;19;20010;-26
2022/05/08 01:32:58;;;;;;;4.43;3.40;;;19.60;97.70;;;;;;4592232;19;20471;-25
2022/05/08 01:34:28;;;;;;;4.18;3.17;;;19.60;97.70;;;;;;4592210;19;20017;-27
2022/05/08 01:36:01;;;;;;;4.20;3.33;;;19.60;97.70;;;;;;4592093;19;20018;-24
2022/05/08 01:37:32;;;;;;;4.50;3.33;;;19.60;97.70;;;;;;4592342;19;20025;-26
2022/05/08 01:39:03;;;;;;;4.50;3.30;;;19.60;97.70;;;;;;4591651;19;20007;-24
2022/05/08 01:40:34;;;;;;;4.82;3.60;;;19.60;97.70;;;;;;4591886;19;20015;-23
2022/05/08 01:42:06;;;;;;;5.45;3.47;;;19.60;97.70;;;;;;4590873;19;20006;-26
2022/05/08 01:43:37;;;;;;;;;;;19.60;97.70;;;;;;4591875;19;20073;-24
2022/05/08 01:45:09;;;;;;;4.28;2.70;;;19.60;97.70;;;;;;4590267;19;20241;-26
2022/05/08 01:46:40;;;;;;;6.13;3.15;;;19.60;97.70;;;;;;4591497;19;20014;-26
2022/05/08 01:48:23;;;;;;;3.65;2.65;;;19.60;97.70;;;;;;4591728;19;20125;-23
2022/05/08 01:49:54;;;;;;;4.43;3.22;;;19.60;97.70;;;;;;4591415;19;20011;-26
2022/05/08 01:51:25;;;;;;;4.20;2.83;;;19.60;97.70;;;;;;4591602;19;20433;-25
2022/05/08 01:52:56;;;;;;;3.83;3.15;;;19.60;97.70;;;;;;4591748;19;20471;-26
2022/05/08 01:54:27;;;;;;;3.53;2.83;;;19.60;97.80;;;;;;4591673;19;20365;-25
2022/05/08 01:55:58;;;;;;;4.03;2.92;;;19.60;97.80;;;;;;4591381;19;20011;-26
2022/05/08 01:57:29;;;;;;;4.63;2.80;;;19.60;97.80;;;;;;4591472;19;20018;-25
2022/05/08 01:59:00;;;;;;;4.30;3.35;;;19.50;97.70;;;;;;4592092;19;20484;-23
2022/05/08 02:00:32;;;;;;;4.15;3.15;;;19.60;97.80;;;;;;4591602;19;20428;-24
2022/05/08 02:02:03;;;;;;;3.83;2.97;;;19.60;97.80;;;;;;4591350;19;20010;-25
2022/05/08 02:03:34;;;;;;;3.78;3.03;;;19.50;97.80;;;;;;4591576;19;20062;-27
2022/05/08 02:05:05;;;;;;;3.95;3.10;;;19.50;97.80;;;;;;4590386;19;20353;-25
2022/05/08 02:06:36;;;;;;;;;;;19.60;97.80;;;;;;4591597;19;20014;-26
2022/05/08 02:08:07;;;;;;;4.35;3.08;;;19.50;97.80;;;;;;4590806;19;19953;-23
2022/05/08 02:09:38;;;;;;;4.30;3.08;;;19.50;97.80;;;;;;4591588;19;20022;-24
2022/05/08 02:11:09;;;;;;;3.75;2.85;;;19.50;97.80;;;;;;4590495;19;20010;-23
2022/05/08 02:12:41;;;;;;;5.68;3.40;;;19.50;97.80;;;;;;4590725;19;20077;-28
2022/05/08 02:14:12;;;;;;;3.42;2.80;;;19.50;97.80;;;;;;4590953;19;20010;-27
2022/05/08 02:15:43;;;;;;;4.35;3.13;;;19.50;97.80;;;;;;4591142;19;20025;-24
2022/05/08 02:17:14;;;;;;;5.03;2.95;;;19.50;97.80;;;;;;4590440;19;20468;-26
2022/05/08 02:18:46;;;;;;;4.35;3.08;;;19.50;97.80;;;;;;4589920;19;20015;-26
2022/05/08 02:20:16;;;;;;;5.22;3.25;;;19.50;97.80;;;;;;4590451;19;20007;-26
2022/05/08 02:21:47;;;;;;;4.63;2.95;;;19.50;97.80;;;;;;4591434;19;20342;-25
2022/05/08 02:23:18;;;;;;;5.82;3.58;;;19.50;97.80;;;;;;4590657;19;20035;-25
2022/05/08 02:24:51;;;;;;;4.43;3.38;;;19.50;97.80;;;;;;4589901;19;20014;-25
2022/05/08 02:26:21;;;;;;;4.88;3.42;;;19.50;97.80;;;;;;4590629;19;20006;-27
2022/05/08 02:27:52;;;;;;;4.32;3.20;;;19.50;97.80;;;;;;4591221;19;20034;-24
2022/05/08 02:29:23;;;;;;;4.70;3.50;;;19.50;97.80;;;;;;4590024;19;20033;-23
2022/05/08 02:30:55;;;;;;;3.95;3.17;;;19.50;98.10;;;;;;4591360;19;20070;-24
2022/05/08 02:32:26;;;;;;;4.32;3.20;;;19.50;97.80;;;;;;4591107;19;20022;-27
2022/05/08 02:33:57;;;;;;;4.10;3.17;;;19.50;97.80;;;;;;4590917;19;20019;-24
2022/05/08 02:35:28;;;;;;;4.25;3.35;;;19.50;97.90;;;;;;4590631;19;20023;-26
2022/05/08 02:36:59;;;;;;;4.35;3.25;;;19.50;97.80;;;;;;4589264;19;20073;-29
2022/05/08 02:38:30;;;;;;;4.10;3.38;;;19.50;97.80;;;;;;4589762;19;20337;-23
2022/05/08 02:40:01;;;;;;;5.82;3.92;;;19.50;97.80;;;;;;4589775;19;20023;-27
2022/05/08 02:41:32;;;;;;;4.88;3.83;;;19.50;97.80;;;;;;4590777;19;20014;-27
2022/05/08 02:43:03;;;;;;;4.75;3.63;;;19.50;97.80;;;;;;4590938;19;20037;-24
2022/05/08 02:44:34;;;;;;;4.80;3.92;;;19.50;97.80;;;;;;4591103;19;20083;-27
2022/05/08 02:46:05;;;;;;;4.65;3.53;;;19.50;97.80;;;;;;4590256;19;20014;-27
2022/05/08 02:47:37;;;;;;;4.55;3.55;;;19.50;97.90;;;;;;4590396;19;20501;-25
2022/05/08 02:49:08;;;;;;;4.28;3.45;;;19.50;97.90;;;;;;4589747;19;20019;-26
2022/05/08 02:50:39;;;;;;;5.07;3.50;;;19.50;97.80;;;;;;4591031;19;20022;-24
2022/05/08 02:52:10;;;;;;;4.65;3.65;;;19.50;97.90;;;;;;4590371;19;20018;-25
2022/05/08 02:53:41;;;;;;;4.07;3.38;;;19.50;97.80;;;;;;4590374;19;20023;-26
2022/05/08 02:58:52;;;;;;;4.97;3.17;;;19.50;97.90;;;;;;4590366;19;20018;-26
2022/05/08 03:00:26;;;;;;;4.38;3.28;;;19.50;97.80;;;;;;4588928;19;20023;-25
2022/05/08 03:01:57;;;;;;;4.47;3.83;;;19.50;97.90;;;;;;4590285;19;20277;-25
2022/05/08 03:03:28;;;;;;;4.80;3.40;;;19.50;97.80;;;;;;4590728;19;20038;-24
2022/05/08 03:04:59;;;;;;;4.63;3.95;;;19.50;97.90;;;;;;4587655;19;20067;-25
2022/05/08 03:06:33;;;;;;;4.25;3.42;;;19.50;97.90;;;;;;4589439;19;20014;-24
2022/05/08 03:08:07;;;;;;;4.00;3.30;;;19.50;97.90;;;;;;4589785;19;20342;-23
2022/05/08 03:09:37;;;;;;;5.25;3.65;;;19.50;97.90;;;;;;4590094;19;20019;-26
2022/05/08 03:11:27;;;;;;;5.05;3.63;;;19.50;97.90;;;;;;4589543;19;20014;-26
2022/05/08 03:12:58;;;;;;;4.90;3.30;;;19.50;97.90;;;;;;4589828;19;20019;-25
2022/05/08 03:14:29;;;;;;;3.63;3.03;;;19.50;97.90;;;;;;4590024;19;20488;-27
2022/05/08 03:16:00;;;;;;;4.53;3.60;;;19.50;97.90;;;;;;4589715;19;20031;-30
2022/05/08 03:17:31;;;;;;;4.82;3.30;;;19.50;97.90;;;;;;4588929;19;20078;-25
2022/05/08 03:19:03;;;;;;;4.03;3.35;;;19.50;97.90;;;;;;4588905;19;20093;-27
2022/05/08 03:20:34;;;;;;;4.10;3.10;;;19.50;97.90;;;;;;4589782;19;20094;-27
2022/05/08 03:22:06;;;;;;;3.70;2.90;;;19.50;97.90;;;;;;4590415;19;20010;-26
2022/05/08 03:23:37;;;;;;;5.70;3.90;;;19.40;97.80;;;;;;4588551;19;20011;-26
2022/05/08 03:25:08;;;;;;;4.15;2.80;;;19.50;97.80;;;;;;4589513;19;20011;-26
2022/05/08 03:26:39;;;;;;;5.55;3.92;;;19.50;97.90;;;;;;4589898;19;20014;-24
2022/05/08 03:28:12;;;;;;;5.57;4.43;;;19.50;97.80;;;;;;4590140;19;19994;-25
2022/05/08 03:29:43;;;;;;;5.63;4.35;;;19.40;97.80;;;;;;4588845;19;20026;-26
2022/05/08 03:31:14;;;;;;;5.88;4.57;;;19.40;97.80;;;;;;4588540;19;20029;-28
2022/05/08 03:32:45;;;;;;;5.93;4.40;;;19.40;97.80;;;;;;4589277;19;19994;-26
2022/05/08 03:34:16;;;;;;;6.35;4.50;;;19.40;97.80;;;;;;4589949;19;20365;-25
2022/05/08 03:35:47;;;;;;;5.72;4.13;;;19.40;97.80;;;;;;4589743;19;20006;-26
2022/05/08 03:37:18;;;;;;;5.95;4.75;;;19.40;97.80;;;;;;4589985;19;20015;-25
2022/05/08 03:38:49;;;;;;;6.22;4.88;;;19.40;97.80;;;;;;4589832;19;20081;-27
2022/05/08 03:40:20;;;;;;;6.28;4.50;;;19.40;97.80;;;;;;4589249;19;20081;-23
2022/05/08 03:41:51;;;;;;;6.30;5.10;;;19.40;97.80;;;;;;4589945;19;20319;-26
2022/05/08 03:43:23;;;;;;;6.40;4.68;;;19.50;97.80;;;;;;4589613;19;20468;-25
2022/05/08 03:44:54;;;;;;;6.60;5.18;;;19.40;97.80;;;;;;4589778;19;20021;-27
2022/05/08 03:46:25;;;;;;;6.53;4.32;;;19.40;97.80;;;;;;4588078;19;20021;-23
2022/05/08 03:47:56;;;;;;;5.80;4.32;;;19.40;97.80;;;;;;4588677;19;20070;-27
2022/05/08 03:49:27;;;;;;;5.90;4.28;;;19.40;97.80;;;;;;4589860;19;20017;-24
2022/05/08 03:50:58;;;;;;;6.45;4.72;;;19.40;97.80;;;;;;4589772;19;20359;-26
2022/05/08 03:52:29;;;;;;;4.93;4.10;;;19.40;97.80;;;;;;4589677;19;20041;-24
2022/05/08 03:54:02;;;;;;;5.63;4.60;;;19.40;97.70;;;;;;4593719;19;20013;-25
2022/05/08 03:55:33;;;;;;;5.63;4.60;;;19.40;97.70;;;;;;4594222;19;20072;-24
2022/05/08 03:57:04;;;;;;;6.43;5.25;;;19.40;97.70;;;;;;4593772;19;20014;-26
2022/05/08 03:58:35;;;;;;;6.18;4.43;;;19.40;97.70;;;;;;4592678;19;20013;-27
2022/05/08 04:00:07;;;;;;;5.43;3.83;;;19.40;97.80;;;;;;4593538;19;20010;-27
2022/05/08 04:01:38;;;;;;;5.90;4.63;;;19.40;97.70;;;;;;4592741;19;20112;-27
2022/05/08 04:03:09;;;;;;;6.13;4.55;;;19.40;97.70;;;;;;4593336;19;20059;-26
2022/05/08 04:04:40;;;;;;;5.88;4.53;;;19.40;97.70;;;;;;4594059;19;20018;-28
2022/05/08 04:06:11;;;;;;;5.40;4.20;;;19.40;97.70;;;;;;4594143;19;20045;-25
2022/05/08 04:07:42;;;;;;;5.15;3.90;;;19.40;97.70;;;;;;4594307;19;20014;-25
2022/05/08 04:09:16;;;;;;;5.90;4.38;;;19.40;97.70;;;;;;4592109;19;20033;-26
2022/05/08 04:10:47;;;;;;;5.10;3.72;;;19.40;97.70;;;;;;4592448;19;20486;-25
2022/05/08 04:12:21;;;;;;;5.45;3.75;;;19.40;97.70;;;;;;4593155;19;20440;-24
2022/05/08 04:13:52;;;;;;;5.40;3.97;;;19.40;97.90;;;;;;4594191;19;20018;-24
2022/05/08 04:17:12;;;;;;;5.20;3.78;;;19.40;97.70;;;;;;4591334;19;20019;-25
2022/05/08 04:18:44;;;;;;;4.20;3.00;;;19.40;97.70;;;;;;4593839;19;19999;-26
2022/05/08 04:20:15;;;;;;;3.67;2.92;;;19.50;97.70;;;;;;4592969;19;20014;-24
2022/05/08 04:21:46;;;;;;;5.05;3.85;;;19.40;97.70;;;;;;4592614;19;20040;-29
2022/05/08 04:25:08;;;;;;;4.35;3.20;;;19.40;97.70;;;;;;4593648;19;20070;-25
2022/05/08 04:26:39;;;;;;;4.53;3.20;;;19.40;97.70;;;;;;4593815;19;20077;-27
2022/05/08 04:28:11;;;;;;;5.03;3.63;;;19.40;97.70;;;;;;4592479;19;20011;-26
2022/05/08 04:29:42;;;;;;;3.92;3.10;;;19.40;97.70;;;;;;4591525;19;20027;-24
2022/05/08 04:31:13;;;;;;;4.70;3.33;;;19.40;97.70;;;;;;4593690;19;20337;-27
2022/05/08 04:32:45;;;;;;;4.55;3.05;;;19.40;97.60;;;;;;4593422;19;20018;-26
2022/05/08 04:34:15;;;;;;;4.95;3.08;;;19.40;97.60;;;;;;4593173;19;20369;-24
2022/05/08 04:35:46;;;;;;;4.50;3.05;;;19.40;97.60;;;;;;4593472;19;20022;-24
2022/05/08 04:37:17;;;;;;;4.30;3.15;;;19.40;97.60;;;;;;4593299;19;20013;-25
2022/05/08 04:38:48;;;;;;;4.50;3.40;;;19.40;97.60;;;;;;4593352;19;20098;-25
2022/05/08 04:40:19;;;;;;;4.15;3.60;;;19.40;97.60;;;;;;4593082;19;20018;-24
2022/05/08 04:41:51;;;;;;;5.10;3.55;;;19.40;97.60;;;;;;4593288;19;20015;-24
2022/05/08 04:43:22;;;;;;;6.70;4.47;;;19.40;97.60;;;;;;4593404;19;20010;-25
2022/05/08 04:44:55;;;;;;;7.03;4.80;;;19.40;97.60;;;;;;4592880;19;20010;-27
2022/05/08 04:46:26;;;;;;;7.18;4.88;;;19.40;97.60;;;;;;4593066;19;20010;-24
2022/05/08 04:47:58;;;;;;;8.35;5.57;;;19.40;97.60;;;;;;4593877;19;20027;-24
2022/05/08 04:49:29;;;;;;;9.25;6.20;;;19.40;97.60;;;;;;4593206;19;20007;-26
2022/05/08 04:51:00;;;;;;;7.70;5.20;;;19.40;97.60;;;;;;4592510;19;20027;-24
2022/05/08 04:52:31;;;;;;;8.38;4.85;;;19.40;97.60;;;;;;4592844;19;20472;-24
2022/05/08 04:54:02;;;;;;;7.55;4.90;;;19.40;97.60;;;;;;4593200;19;20014;-27
2022/05/08 04:55:33;;;;;;;7.85;5.30;;;19.40;97.60;;;;;;4591485;19;20018;-25
2022/05/08 04:57:05;;;;;;;5.50;4.22;;;19.40;97.60;;;;;;4592134;19;20011;-24
2022/05/08 04:58:36;;;;;;;6.20;4.63;;;19.40;97.60;;;;;;4593306;19;20033;-24
2022/05/08 05:00:08;;;;;;;6.47;4.45;;;19.40;97.60;;;;;;4592039;19;20007;-24
2022/05/08 05:01:39;;;;;;;5.95;4.10;;;19.40;97.60;;;;;;4592069;19;20022;-24
2022/05/08 05:03:10;;;;;;;6.22;4.38;;;19.40;97.60;;;;;;4592417;19;20379;-29
2022/05/08 05:04:41;;;;;;;6.05;4.05;;;19.40;97.60;;;;;;4592600;19;20021;-26
2022/05/08 05:06:12;;;;;;;6.05;3.95;;;19.40;97.60;;;;;;4593162;19;20010;-24
2022/05/08 05:07:43;;;;;;;4.60;3.25;;;19.40;97.60;;;;;;4594304;19;20053;-26
2022/05/08 05:09:14;;;;;;;4.78;3.45;;;19.40;97.60;;;;;;4590662;19;20023;-26
2022/05/08 05:10:45;;;;;;;4.50;3.50;;;19.40;97.60;;;;;;4593329;19;20010;-26
2022/05/08 05:12:16;;;;;;;4.45;3.25;;;19.40;97.60;;;;;;4593080;19;20054;-26
2022/05/08 05:13:47;;;;;;;4.40;3.15;;;19.40;97.50;;;;;;4591180;19;20010;-27
2022/05/08 05:15:18;;;;;;;5.22;3.78;;;19.40;97.60;;;;;;4589922;19;20006;-29
2022/05/08 05:16:49;;;;;;;4.47;3.13;;;19.30;97.70;;;;;;4591698;19;20034;-24
2022/05/08 05:18:20;;;;;;;3.97;3.28;;;19.20;97.80;;;;;;4592460;19;20045;-28
2022/05/08 05:19:51;;;;;;;3.67;2.95;;;19.20;97.90;;;;;;4592742;19;20453;-24
2022/05/08 05:21:22;;;;;;;3.92;3.15;;;19.20;97.90;;;;;;4590924;19;20014;-25
2022/05/08 05:22:53;;;;;;;4.65;3.63;;;19.20;98.00;;;;;;4588168;19;20010;-26
2022/05/08 05:24:29;;;;;;;5.22;3.83;;;19.20;98.00;;;;;;4587996;19;20031;-27
2022/05/08 05:26:00;;;;;;;4.35;3.58;;;19.20;98.10;;;;;;4590368;19;20015;-25
2022/05/08 05:27:31;;;;;;;4.88;3.85;;;19.10;98.10;;;;;;4593061;19;20015;-24
2022/05/08 05:29:03;;;;;;;4.75;3.70;;;19.10;98.20;;;;;;4588458;19;20102;-27
2022/05/08 05:30:34;;;;;;;5.22;3.90;;;19.10;98.20;;;;;;4591037;19;20042;-26
2022/05/08 05:32:06;;;;;;;4.68;3.55;;;19.10;98.20;;;;;;4592198;19;20013;-25
2022/05/08 05:33:37;;;;;;;;;;;19.10;98.30;;;;;;4592850;19;20018;-26
2022/05/08 05:35:08;;;;;;;5.03;3.58;;;19.10;98.30;;;;;;4592230;19;19915;-26
2022/05/08 05:36:39;;;;;;;4.88;3.45;;;19.10;98.30;;;;;;4591744;19;20696;-25
2022/05/08 05:38:09;;;;;;;4.53;3.60;;;19.10;98.30;;;;;;4591823;19;20018;-25
2022/05/08 05:39:41;;;;;;;;;;;19.10;98.30;;;;;;4591162;19;20021;-28
2022/05/08 05:41:12;;;;;;;5.00;3.90;;;19.10;98.40;;;;;;4591729;19;19931;-26
2022/05/08 05:42:43;;;;;;;4.13;3.25;;;19.10;98.40;;;;;;4592185;19;20377;-28
2022/05/08 05:44:14;;;;;;;4.70;3.38;;;19.00;98.40;;;;;;4590425;19;20034;-26
2022/05/08 05:45:45;;;;;;;5.15;3.70;;;19.00;98.40;;;;;;4591299;19;20484;-25
2022/05/08 05:49:05;;;;;;;3.65;2.80;;;19.00;98.60;;;;;;4590883;19;20078;-27
2022/05/08 05:50:37;;;;;;;4.60;3.42;;;19.00;98.40;;;;;;4590760;19;20003;-28
2022/05/08 05:52:08;;;;;;;5.10;4.00;;;19.10;98.30;;;;;;4590094;19;20398;-25
2022/05/08 05:53:39;;;;;;;3.65;2.90;;;19.10;98.30;;;;;;4590972;19;20015;-26
2022/05/08 05:55:10;;;;;;;3.95;3.22;;;19.20;98.30;;;;;;4593180;19;20045;-27
2022/05/08 05:56:41;;;;;;;3.95;3.13;;;19.20;98.20;;;;;;4592168;19;20337;-26
2022/05/08 05:58:21;;;;;;;3.88;3.42;;;19.30;98.20;;;;;;4591875;19;20011;-24
2022/05/08 05:59:52;;;;;;;4.18;3.17;;;19.30;98.00;;;;;;4591364;19;20456;-25
2022/05/08 06:01:23;;;;;;;4.75;3.33;;;19.30;97.90;;;;;;4588816;19;20011;-26
2022/05/08 06:02:54;;;;;;;4.65;3.13;;;19.40;97.90;;;;;;4590672;19;20011;-23
2022/05/08 06:04:25;;;;;;;3.78;3.30;;;19.30;97.80;;;;;;4591909;19;20052;-24
2022/05/08 06:05:56;;;;;;;3.78;3.10;;;19.40;97.70;;;;;;4591043;19;20034;-25
2022/05/08 06:07:27;;;;;;;3.67;2.95;;;19.40;97.70;;;;;;4591465;19;20031;-30
2022/05/08 06:08:58;;;;;;;3.45;2.92;;;19.40;97.70;;;;;;4589668;19;20011;-23
2022/05/08 06:10:29;;;;;;;3.90;2.95;;;19.40;97.90;;;;;;4593163;19;20010;-27
2022/05/08 06:12:00;;;;;;;3.42;2.65;;;19.40;97.60;;;;;;4592805;19;20014;-26
2022/05/08 06:13:32;;;;;;;2.85;2.35;;;19.40;97.60;;;;;;4593471;19;20476;-25
2022/05/08 06:15:05;;;;;;;4.30;3.17;;;19.40;97.60;;;;;;4590448;19;20029;-27
2022/05/08 06:16:36;;;;;;;4.00;2.88;;;19.50;97.50;;;;;;4590438;19;20135;-24
2022/05/08 06:18:07;;;;;;;4.07;3.40;;;19.50;97.50;;;;;;4591126;19;20019;-25
2022/05/08 06:19:38;;;;;;;3.63;3.03;;;19.50;97.50;;;;;;4591097;19;19998;-23
2022/05/08 06:21:09;;;;;;;4.03;3.00;;;19.50;97.50;;;;;;4591134;19;20014;-25
2022/05/08 06:22:40;;;;;;;3.55;2.70;;;19.50;97.30;;;;;;4589760;19;20003;-25
2022/05/08 06:24:11;;;;;;;3.53;2.65;;;19.60;97.30;;;;;;4590398;19;20365;-27
2022/05/08 06:25:42;;;;;;;3.90;3.17;;;19.70;97.20;;;;;;4591077;19;19998;-25
2022/05/08 06:27:12;;;;;;;6.05;5.40;;;19.80;96.40;;;;;;4591507;19;20028;-26
2022/05/08 06:28:45;;;;;;;;;;;18.10;98.00;;;;;;4590726;19;20317;-25
2022/05/08 06:30:16;;;;;;;;;;;16.80;99.50;;;;;;4590568;19;19922;-24
2022/05/08 06:31:48;;;;;;;;;;;16.10;99.90;;;;;;4592415;19;19927;-25
2022/05/08 06:33:19;;;;;;;6.53;5.82;;;15.60;99.90;;;;;;4592899;19;19911;-26
2022/05/08 06:34:50;;;;;;;7.13;6.43;;;15.30;99.90;;;;;;4590788;19;20073;-26
2022/05/08 06:36:21;;;;;;;6.88;6.18;;;15.20;99.90;;;;;;4590756;19;20031;-25
2022/05/08 06:37:54;;;;;;;7.28;6.55;;;15.10;99.90;;;;;;4591192;19;20015;-25
2022/05/08 06:39:26;;;;;;;7.18;6.47;;;15.00;99.90;;;;;;4590532;19;20031;-26
2022/05/08 06:40:57;;;;;;;7.10;6.40;;;15.00;99.90;;;;;;4591002;19;20006;-23
2022/05/08 06:42:28;;;;;;;7.65;6.30;;;15.00;99.90;;;;;;4590962;19;20017;-26
2022/05/08 06:43:59;;;;;;;6.65;5.85;;;14.90;99.90;;;;;;4589492;19;20014;-26
2022/05/08 06:45:30;;;;;;;7.20;6.10;;;14.90;99.90;;;;;;4589382;19;20006;-26
2022/05/08 06:47:01;;;;;;;6.53;5.82;;;14.90;99.90;;;;;;4590116;19;20024;-25
2022/05/08 06:48:33;;;;;;;6.50;5.30;;;14.90;99.90;;;;;;4590000;19;20478;-26
2022/05/08 06:50:04;;;;;;;7.00;6.20;;;14.90;99.90;;;;;;4590247;19;20408;-27
2022/05/08 06:51:35;;;;;;;6.43;5.82;;;14.90;99.90;;;;;;4590086;19;20464;-27
2022/05/08 06:53:06;;;;;;;6.63;5.80;;;14.90;99.90;;;;;;4590262;19;20092;-24
2022/05/08 06:54:38;;;;;;;6.70;5.90;;;14.90;99.90;;;;;;4589654;19;20007;-26
2022/05/08 06:56:13;;;;;;;6.20;5.55;;;14.90;99.90;;;;;;4589777;19;20030;-24
2022/05/08 06:57:44;;;;;;;6.87;5.83;;;14.90;99.90;;;;;;4590569;19;20349;-23
2022/05/08 07:02:54;;;;;;;6.70;5.70;;;14.90;99.90;;;;;;4589614;19;20062;-25
2022/05/08 07:04:25;;;;;;;6.50;5.47;;;14.90;99.90;;;;;;4589735;19;20021;-24
2022/05/08 07:05:57;;;;;;;7.93;6.80;;;14.90;99.90;;;;;;4590511;19;20414;-23
2022/05/08 07:07:28;;;;;;;7.18;6.05;;;14.90;99.90;;;;;;4590537;19;20023;-27
2022/05/08 07:08:59;;;;;;;6.68;5.97;;;14.90;99.90;;;;;;4589296;19;20003;-25
2022/05/08 07:10:30;;;;;;;6.25;5.45;;;14.90;99.90;;;;;;4589755;19;20350;-25
2022/05/08 07:12:01;;;;;;;6.22;5.63;;;14.90;99.90;;;;;;4589837;19;20034;-26
2022/05/08 07:13:33;;;;;;;6.68;5.95;;;14.90;99.90;;;;;;4589979;19;20026;-23
2022/05/08 07:15:04;;;;;;;6.80;5.73;;;14.90;99.90;;;;;;4590036;19;20353;-27
2022/05/08 07:16:36;;;;;;;7.07;6.38;;;14.90;99.90;;;;;;4589436;19;20011;-28
2022/05/08 07:18:07;;;;;;;7.63;6.45;;;14.80;99.90;;;;;;4589740;19;20010;-25
2022/05/08 07:19:38;;;;;;;5.93;5.28;;;14.80;99.90;;;;;;4588697;19;20389;-26
2022/05/08 07:21:09;;;;;;;6.30;5.18;;;14.90;99.90;;;;;;4589333;19;20018;-25
2022/05/08 07:22:40;;;;;;;7.28;5.90;;;14.90;99.90;;;;;;4589872;19;20007;-29
2022/05/08 07:24:11;;;;;;;6.07;5.47;;;14.90;99.90;;;;;;4588751;19;20038;-25
2022/05/08 07:25:42;;;;;;;6.90;5.20;;;14.90;99.90;;;;;;4590004;19;20018;-28
2022/05/08 07:27:13;;;;;;;5.55;4.88;;;14.90;99.90;;;;;;4590704;19;20479;-27
2022/05/08 07:28:45;;;;;;;7.25;6.28;;;14.90;99.90;;;;;;4592727;19;20018;-26
2022/05/08 07:30:16;;;;;;;6.35;5.70;;;14.90;99.90;;;;;;4592550;19;20480;-26
2022/05/08 07:31:47;;;;;;;6.55;5.53;;;14.90;99.90;;;;;;4593270;19;20499;-25
2022/05/08 07:33:19;;;;;;;6.32;4.63;;;14.90;99.90;;;;;;4594012;19;20019;-25
2022/05/08 07:36:40;;;;;;;5.87;5.27;;;14.90;99.90;;;;;;4595229;19;20014;-28
2022/05/08 07:38:11;;;;;;;6.18;5.10;;;14.90;99.90;;;;;;4594711;19;20082;-26
2022/05/08 07:39:42;;;;;;;6.10;4.95;;;14.90;99.90;;;;;;4594076;19;20018;-26
2022/05/08 07:41:15;;;;;;;5.32;4.60;;;14.90;99.90;;;;;;4593854;19;20023;-26
2022/05/08 07:42:46;;;;;;;5.13;4.47;;;14.90;99.90;;;;;;4594005;19;20011;-24
2022/05/08 07:44:17;;;;;;;4.93;4.38;;;14.90;99.90;;;;;;4594625;19;20014;-25
2022/05/08 07:45:48;;;;;;;5.57;4.93;;;14.90;99.90;;;;;;4594118;19;20017;-30
2022/05/08 07:47:21;;;;;;;5.45;4.95;;;14.90;99.90;;;;;;4593677;19;20484;-24
2022/05/08 07:48:52;;;;;;;5.37;4.83;;;14.90;99.90;;;;;;4592037;19;20023;-27
2022/05/08 07:50:23;;;;;;;6.15;5.30;;;14.90;99.90;;;;;;4594442;19;20013;-26
2022/05/08 07:51:54;;;;;;;5.22;4.47;;;14.80;99.90;;;;;;4592889;19;20019;-24
2022/05/08 07:53:29;;;;;;;5.18;4.65;;;14.80;99.90;;;;;;4593552;19;20058;-27
2022/05/08 07:55:00;;;;;;;4.80;4.10;;;14.90;99.90;;;;;;4593032;19;20014;-25
2022/05/08 07:56:31;;;;;;;6.20;4.90;;;14.80;99.90;;;;;;4593016;19;20030;-24
2022/05/08 07:58:02;;;;;;;5.53;4.90;;;14.80;99.90;;;;;;4591750;19;20014;-26
2022/05/08 07:59:33;;;;;;;4.90;4.40;;;14.80;99.90;;;;;;4593533;19;20472;-26
2022/05/08 08:01:04;;;;;;;6.13;5.53;;;14.80;99.90;;;;;;4593687;19;20018;-24
2022/05/08 08:02:35;;;;;;;6.47;5.38;;;14.80;99.90;;;;;;4593923;19;20015;-24
2022/05/08 08:04:08;;;;;;;5.90;5.30;;;14.80;99.90;;;;;;4591832;19;20496;-27
2022/05/08 08:05:40;;;;;;;5.93;5.33;;;14.80;99.90;;;;;;4594234;19;20019;-25
2022/05/08 08:07:11;;;;;;;6.47;5.57;;;14.80;99.90;;;;;;4593012;19;20074;-26
2022/05/08 08:08:43;;;;;;;5.93;4.65;;;14.80;99.90;;;;;;4591700;19;20010;-27
2022/05/08 08:10:14;;;;;;;6.65;5.78;;;14.80;99.90;;;;;;4592782;19;20020;-25
2022/05/08 08:11:45;;;;;;;5.55;4.63;;;14.80;99.90;;;;;;4593606;19;20015;-25